地図

経路データ

SID SEASON NUMBER BASIN SUBBASIN NAME ISO_TIME NATURE LAT LON WMO_WIND WMO_PRES WMO_AGENCY TRACK_TYPE DIST2LAND LANDFALL IFLAG USA_AGENCY USA_ATCF_ID USA_LAT USA_LON USA_RECORD USA_STATUS USA_WIND USA_PRES USA_SSHS USA_R34_NE USA_R34_SE USA_R34_SW USA_R34_NW USA_R50_NE USA_R50_SE USA_R50_SW USA_R50_NW USA_R64_NE USA_R64_SE USA_R64_SW USA_R64_NW USA_POCI USA_ROCI USA_RMW USA_EYE TOKYO_LAT TOKYO_LON TOKYO_GRADE TOKYO_WIND TOKYO_PRES TOKYO_R50_DIR TOKYO_R50_LONG TOKYO_R50_SHORT TOKYO_R30_DIR TOKYO_R30_LONG TOKYO_R30_SHORT TOKYO_LAND CMA_LAT CMA_LON CMA_CAT CMA_WIND CMA_PRES HKO_LAT HKO_LON HKO_CAT HKO_WIND HKO_PRES NEWDELHI_LAT NEWDELHI_LON NEWDELHI_GRADE NEWDELHI_WIND NEWDELHI_PRES NEWDELHI_CI NEWDELHI_DP NEWDELHI_POCI REUNION_LAT REUNION_LON REUNION_TYPE REUNION_WIND REUNION_PRES REUNION_TNUM REUNION_CI REUNION_RMW REUNION_R34_NE REUNION_R34_SE REUNION_R34_SW REUNION_R34_NW REUNION_R50_NE REUNION_R50_SE REUNION_R50_SW REUNION_R50_NW REUNION_R64_NE REUNION_R64_SE REUNION_R64_SW REUNION_R64_NW BOM_LAT BOM_LON BOM_TYPE BOM_WIND BOM_PRES BOM_TNUM BOM_CI BOM_RMW BOM_R34_NE BOM_R34_SE BOM_R34_SW BOM_R34_NW BOM_R50_NE BOM_R50_SE BOM_R50_SW BOM_R50_NW BOM_R64_NE BOM_R64_SE BOM_R64_SW BOM_R64_NW BOM_ROCI BOM_POCI BOM_EYE BOM_POS_METHOD BOM_PRES_METHOD NADI_LAT NADI_LON NADI_CAT NADI_WIND NADI_PRES WELLINGTON_LAT WELLINGTON_LON WELLINGTON_WIND WELLINGTON_PRES DS824_LAT DS824_LON DS824_STAGE DS824_WIND DS824_PRES TD9636_LAT TD9636_LON TD9636_STAGE TD9636_WIND TD9636_PRES TD9635_LAT TD9635_LON TD9635_WIND TD9635_PRES TD9635_ROCI NEUMANN_LAT NEUMANN_LON NEUMANN_CLASS NEUMANN_WIND NEUMANN_PRES MLC_LAT MLC_LON MLC_CLASS MLC_WIND MLC_PRES USA_GUST BOM_GUST BOM_GUST_PER REUNION_GUST REUNION_GUST_PER USA_SEAHGT USA_SEARAD_NE USA_SEARAD_SE USA_SEARAD_SW USA_SEARAD_NW STORM_SPEED STORM_DIR
2005107N07151 2005 27 WP MM SONCA 2005-04-16 18:00:00 NR 6.90000 150.800 main 1075 1073 O_____________ jtwc_wp WP032005 6.90000 150.800 DB 15 1006 -3 3 285
2005107N07151 2005 27 WP MM SONCA 2005-04-16 21:00:00 NR 6.93499 150.673 main 1073 1069 P_____________ WP032005 6.93499 150.673 DB 15 1006 -3 3 289
2005107N07151 2005 27 WP MM SONCA 2005-04-17 00:00:00 NR 7.00000 150.500 main 1076 1072 O_____________ jtwc_wp WP032005 7.00000 150.500 DB 15 1006 -3 5 294
2005107N07151 2005 27 WP MM SONCA 2005-04-17 03:00:00 NR 7.12002 150.258 main 1080 1076 P_____________ WP032005 7.12002 150.258 DB 15 1006 -3 6 301
2005107N07151 2005 27 WP MM SONCA 2005-04-17 06:00:00 NR 7.30000 150.000 main 1092 1089 O_____________ jtwc_wp WP032005 7.30000 150.000 DB 15 1006 -3 6 311
2005107N07151 2005 27 WP MM SONCA 2005-04-17 09:00:00 NR 7.51999 149.785 main 1108 1108 P_____________ WP032005 7.51999 149.785 DB 17 1005 -3 6 322
2005107N07151 2005 27 WP MM SONCA 2005-04-17 12:00:00 NR 7.80000 149.600 main 1135 1135 O_____________ jtwc_wp WP032005 7.80000 149.600 DB 20 1004 -3 7 333
2005107N07151 2005 27 WP MM SONCA 2005-04-17 15:00:00 NR 8.13495 149.465 main 1166 1166 P_____________ WP032005 8.13495 149.465 DB 22 1003 -3 8 337
2005107N07151 2005 27 WP MM SONCA 2005-04-17 18:00:00 TS 8.50000 149.300 main 1206 1206 O_____________ jtwc_wp WP032005 8.50000 149.300 TD 25 1002 -1 8 330
2005107N07151 2005 27 WP MM SONCA 2005-04-17 21:00:00 TS 8.85748 149.037 main 1245 1245 P_____________ WP032005 8.85748 149.037 TD 25 1002 -1 9 320
2005107N07151 2005 27 WP MM SONCA 2005-04-18 00:00:00 TS 9.20000 148.700 main 1274 1274 O_____________ jtwc_wp WP032005 9.20000 148.700 TD 25 1002 -1 10 314
2005107N07151 2005 27 WP MM SONCA 2005-04-18 03:00:00 TS 9.52997 148.323 main 1303 1303 P_____________ WP032005 9.52997 148.323 TD 25 1002 -1 10 307
2005107N07151 2005 27 WP MM SONCA 2005-04-18 06:00:00 TS 9.80000 147.900 main 1334 1334 O_____________ jtwc_wp WP032005 9.80000 147.900 TD 25 1002 -1 10 299
2005107N07151 2005 27 WP MM SONCA 2005-04-18 09:00:00 TS 9.99494 147.465 main 1355 1355 P_____________ WP032005 9.99494 147.465 TD 25 1002 -1 9 289
2005107N07151 2005 27 WP MM SONCA 2005-04-18 12:00:00 TS 10.1000 147.000 main 1367 1367 O_____________ jtwc_wp WP032005 10.1000 147.000 TD 25 1002 -1 10 279
2005107N07151 2005 27 WP MM SONCA 2005-04-18 15:00:00 TS 10.1450 146.500 main 1367 1367 P_____________ WP032005 10.1450 146.500 TD 25 1002 -1 10 270
2005107N07151 2005 27 WP MM SONCA 2005-04-18 18:00:00 TS 10.1000 146.000 main 1368 1358 O_____________ jtwc_wp WP032005 10.1000 146.000 TD 25 1002 -1 10 260
2005107N07151 2005 27 WP MM SONCA 2005-04-18 21:00:00 TS 9.97249 145.520 main 1361 1342 P_____________ WP032005 9.97249 145.520 TD 25 1002 -1 9 251
2005107N07151 2005 27 WP MM SONCA 2005-04-19 00:00:00 TS 9.80000 145.100 main 1343 1334 O_____________ jtwc_wp WP032005 9.80000 145.100 TD 25 1002 -1 1008 150 50 8 246
2005107N07151 2005 27 WP MM SONCA 2005-04-19 03:00:00 TS 9.64991 144.778 main 1326 1318 P_____________ WP032005 9.64991 144.778 TD 25 1002 -1 1008 150 50 7 243
2005107N07151 2005 27 WP MM SONCA 2005-04-19 06:00:00 TS 9.50000 144.500 main 1320 1311 O_____________ jtwc_wp WP032005 9.50000 144.500 TD 25 1002 -1 1008 150 50 7 244
2005107N07151 2005 27 WP MM SONCA 2005-04-19 09:00:00 TS 9.36501 144.185 main 1315 1298 P_____________ WP032005 9.36501 144.185 TD 25 1002 -1 1008 150 50 7 243
2005107N07151 2005 27 WP MM SONCA 2005-04-19 12:00:00 TS 9.20000 143.900 main 1301 1284 O_____________ jtwc_wp WP032005 9.20000 143.900 TD 25 1002 -1 1008 150 50 7 231
2005107N07151 2005 27 WP MM SONCA 2005-04-19 15:00:00 TS 8.95748 143.670 main 1284 1258 P_____________ WP032005 8.95748 143.670 TD 25 1002 -1 1008 150 50 6 218
2005107N07151 2005 27 WP MM SONCA 2005-04-19 18:00:00 TS 8.70000 143.500 main 1258 1239 O_____________ jtwc_wp WP032005 8.70000 143.500 TD 25 1002 -1 1008 150 50 5 209
2005107N07151 2005 27 WP MM SONCA 2005-04-19 21:00:00 TS 8.48497 143.400 main 1239 1221 P_____________ WP032005 8.48497 143.400 TD 25 1002 -1 1008 150 50 4 206
2005107N07151 2005 27 WP MM SONCA 2005-04-20 00:00:00 TS 8.30000 143.300 main 1221 1203 O_____________ jtwc_wp WP032005 8.30000 143.300 TD 25 1002 -1 1008 150 50 5 216
2005107N07151 2005 27 WP MM SONCA 2005-04-20 03:00:00 TS 8.11998 143.130 main 1207 1193 P_____________ WP032005 8.11998 143.130 TD 25 1002 -1 1008 150 50 5 233
2005107N07151 2005 27 WP MM SONCA 2005-04-20 06:00:00 TS 8.00000 142.900 main 1193 1180 O_____________ jtwc_wp WP032005 8.00000 142.900 TD 25 1002 -1 1008 150 50 5 255
2005107N07151 2005 27 WP MM SONCA 2005-04-20 09:00:00 TS 7.97752 142.608 main 1180 1168 P_____________ WP032005 7.97752 142.608 TD 25 1002 -1 6 270
2005107N07151 2005 27 WP MM SONCA 2005-04-20 12:00:00 TS 8.00000 142.300 main 1168 1159 O_____________ jtwc_wp WP032005 8.00000 142.300 TD 25 1002 -1 35 5 272
2005107N07151 2005 27 WP MM SONCA 2005-04-20 15:00:00 TS 7.99242 142.065 main 1159 1147 P_____________ WP032005 7.99242 142.065 TD 25 1002 -1 5 270
2005107N07151 2005 27 WP MM SONCA 2005-04-20 18:00:00 TS 8.00000 141.800 main 1147 1132 O_____________ jtwc_wp WP032005 8.00000 141.800 TD 25 1002 -1 35 6 272
2005107N07151 2005 27 WP MM SONCA 2005-04-20 21:00:00 TS 8.02002 141.422 main 1132 1126 P_____________ WP032005 8.02002 141.422 TD 25 1002 -1 8 277
2005107N07151 2005 27 WP MM SONCA 2005-04-21 00:00:00 TS 8.10000 141.000 main 1130 1124 O_____________ jtwc_wp WP032005 8.10000 141.000 TD 25 1002 -1 35 8 286
2005107N07151 2005 27 WP MM SONCA 2005-04-21 03:00:00 TS 8.25496 140.600 main 1140 1140 P_____________ WP032005 8.25496 140.600 TD 25 1002 -1 5 334
2005107N07151 2005 27 WP MM SONCA 2005-04-21 06:00:00 TS 8.56667 140.767 1004 tokyo main 1178 1176 OOO___________ jtwc_wp WP032005 8.50000 140.200 TD 25 1002 -1 8.70000 141.900 2 1004 0 0 0 8.70000 141.900 1 23 1004 35 9 342
2005107N07151 2005 27 WP MM SONCA 2005-04-21 09:00:00 TS 9.08165 140.324 main 1211 1211 PPP___________ WP032005 8.81991 139.815 TD 25 1002 -1 9.34340 140.833 2 1005 0 0 9.34340 140.833 1 23 1004 15 315
2005107N07151 2005 27 WP MM SONCA 2005-04-21 12:00:00 TS 9.62000 139.700 1006 tokyo main 1239 1239 OOO___________ jtwc_wp WP032005 9.20000 139.400 TD 25 1002 -1 9.90000 139.900 2 1006 0 0 0 9.90000 139.900 1 23 1004 35 16 309
2005107N07151 2005 27 WP MM SONCA 2005-04-21 15:00:00 TS 10.0730 139.103 main 1270 1267 PPP___________ WP032005 9.59992 138.930 TD 25 1002 -1 10.3095 139.190 2 1005 0 0 10.3095 139.190 1 23 1004 14 304
2005107N07151 2005 27 WP MM SONCA 2005-04-21 18:00:00 TS 10.4000 138.533 1004 tokyo main 1284 1281 OOO___________ jtwc_wp WP032005 10.0000 138.400 TD 25 1002 -1 10.6000 138.600 2 1004 0 0 0 10.6000 138.600 1 23 1004 35 13 298
2005107N07151 2005 27 WP MM SONCA 2005-04-21 21:00:00 TS 10.6673 137.943 main 1285 1238 PPP___________ WP032005 10.3724 137.830 TD 25 1003 -1 10.8148 138.000 2 1004 0 0 10.8148 138.000 1 23 1004 13 293
2005107N07151 2005 27 WP MM SONCA 2005-04-22 00:00:00 TS 10.9000 137.333 1004 tokyo main 1228 1170 OOO___________ jtwc_wp WP032005 10.7000 137.200 TD 25 1004 -1 11.0000 137.400 2 1004 0 0 0 11.0000 137.400 1 23 1004 35 13 293
2005107N07151 2005 27 WP MM SONCA 2005-04-22 03:00:00 TS 11.1823 136.694 main 1170 1100 PPP___________ WP032005 10.9875 136.508 TD 27 1002 -1 11.2797 136.788 2 1004 0 0 11.2797 136.788 1 26 1002 14 291
2005107N07151 2005 27 WP MM SONCA 2005-04-22 06:00:00 TS 11.4154 135.992 1004 tokyo main 1100 1018 OOOO__________ jtwc_wp WP032005 11.2000 135.800 TD 30 1000 -1 11.5000 136.100 2 1004 0 0 0 11.5000 136.100 1 29 1000 11.6000 135.900 TD 25 1000 40 15 282
2005107N07151 2005 27 WP MM SONCA 2005-04-22 09:00:00 TS 11.4939 135.177 main 1018 944 PPPP__________ WP032005 11.3224 135.127 TD 30 1000 -1 11.5529 135.227 2 1003 0 0 11.5529 135.227 1 29 1000 11.6007 135.077 TD 27 998 15 273
2005107N07151 2005 27 WP MM SONCA 2005-04-22 12:00:00 TS 11.4933 134.427 1002 tokyo main 933 881 OOOO__________ jtwc_wp WP032005 11.4000 134.500 TD 30 1000 -1 11.5000 134.400 2 1002 0 0 0 11.5000 134.400 1 29 1000 11.6000 134.400 TD 30 996 40 13 269
2005107N07151 2005 27 WP MM SONCA 2005-04-22 15:00:00 TS 11.4635 133.874 main 881 836 PPPP__________ WP032005 11.5000 133.905 TD 32 998 -1 11.3772 133.817 2 1002 0 0 11.3772 133.817 1 29 1000 11.5996 133.955 TD 30 996 10 267
2005107N07151 2005 27 WP MM SONCA 2005-04-22 18:00:00 TS 11.4500 133.450 1002 tokyo main 839 798 OOOO__________ jtwc_wp WP032005 11.6000 133.400 TS 35 997 0 11.3000 133.400 2 1002 0 0 0 11.3000 133.400 1 29 1000 11.6000 133.600 TD 30 996 40 8 273
2005107N07151 2005 27 WP MM SONCA 2005-04-22 21:00:00 TS 11.5086 133.089 main 798 766 PPPP__________ WP032005 11.6923 133.020 TS 35 997 0 11.3898 133.092 2 1001 0 0 11.3898 133.092 1 31 998 11.5625 133.150 TD 32 994 7 286
2005107N07151 2005 27 WP MM SONCA 2005-04-23 00:00:00 TS 11.6500 132.750 35 1000 tokyo main 767 716 OOOO__________ jtwc_wp WP032005 11.8000 132.700 TS 35 997 0 11.6000 132.800 3 35 1000 0 9 100 100 0 11.6000 132.800 2 34 996 11.6000 132.700 TS 35 992 45 8 296
2005107N07151 2005 27 WP MM SONCA 2005-04-23 03:00:00 TS 11.8813 132.317 main 716 676 PPPP__________ WP032005 11.9275 132.335 TS 45 990 0 11.8927 132.335 3 40 995 0 9 115 115 11.8927 132.335 2 39 993 11.8125 132.263 TS 37 990 10 302
2005107N07151 2005 27 WP MM SONCA 2005-04-23 06:00:00 TS 12.1500 131.925 45 990 tokyo main 678 659 OOOO__________ jtwc_wp WP032005 12.1000 132.000 TS 55 984 0 50 50 50 50 12.2000 131.900 3 45 990 0 9 130 130 0 12.2000 131.900 2 44 990 12.1000 131.900 TS 40 988 55 8 308
2005107N07151 2005 27 WP MM SONCA 2005-04-23 09:00:00 TS 12.3712 131.671 main 661 643 PPPP__________ WP032005 12.3350 131.720 TS 60 980 0 57 57 57 57 12.3999 131.655 3 52 982 0 9 155 140 12.4074 131.655 2 51 985 12.3424 131.655 TS 42 986 6 317
2005107N07151 2005 27 WP MM SONCA 2005-04-23 12:00:00 TS 12.6000 131.500 60 975 tokyo main 646 638 OOOO__________ jtwc_wp WP032005 12.6000 131.500 TY 65 976 1 65 65 65 65 10 10 10 10 12.6000 131.500 4 60 975 9 45 45 3 180 150 0 12.6000 131.500 3 58 980 12.6000 131.500 TS 45 984 75 6 329
2005107N07151 2005 27 WP MM SONCA 2005-04-23 15:00:00 TS 12.8806 131.359 main 645 626 PPPP__________ WP032005 12.8575 131.335 TY 70 971 1 82 77 82 82 25 25 25 25 12.9075 131.350 4 65 970 9 52 52 3 185 155 12.8500 131.350 3 61 977 12.9075 131.400 TS 50 982 6 334
2005107N07151 2005 27 WP MM SONCA 2005-04-23 18:00:00 TS 13.1500 131.225 70 965 tokyo main 628 609 OOOO__________ jtwc_wp WP032005 13.1000 131.200 TY 75 967 1 100 90 100 100 40 40 40 40 15 15 15 15 13.2000 131.200 5 70 965 9 60 60 3 190 160 0 13.1000 131.200 4 64 975 13.2000 131.300 STS 55 980 90 6 324
2005107N07151 2005 27 WP MM SONCA 2005-04-23 21:00:00 TS 13.3394 131.021 main 609 601 PPPP__________ WP032005 13.3000 131.035 TY 82 960 1 105 100 105 105 45 45 45 45 17 17 17 17 13.3500 130.977 5 72 960 9 65 65 3 195 160 13.3000 130.978 4 66 972 13.4076 131.093 STS 57 977 5 316
2005107N07151 2005 27 WP MM SONCA 2005-04-24 00:00:00 TS 13.5250 130.850 75 955 tokyo main 603 593 OOOO__________ jtwc_wp WP032005 13.5000 130.900 TY 90 954 2 110 110 110 110 50 50 50 50 20 20 20 20 13.5000 130.800 5 75 955 9 70 70 3 200 160 0 13.5000 130.800 4 68 970 13.6000 130.900 STS 60 975 105 5 334
2005107N07151 2005 27 WP MM SONCA 2005-04-24 03:00:00 TS 13.7800 130.797 main 601 601 PPPP__________ WP032005 13.7350 130.827 TY 100 943 3 110 110 110 110 50 50 50 50 20 20 20 20 13.7925 130.770 5 80 950 9 75 75 3 205 160 13.7425 130.770 4 72 965 13.8500 130.820 STS 65 970 5 354
2005107N07151 2005 27 WP MM SONCA 2005-04-24 06:00:00 TS 14.0500 130.800 85 945 tokyo main 612 612 OOOO__________ jtwc_wp WP032005 14.0000 130.800 TY 110 933 3 110 110 110 110 50 50 50 50 20 20 20 20 14.1000 130.800 5 85 945 9 80 80 3 210 160 0 14.0000 130.800 4 77 960 14.1000 130.800 T 70 965 130 5 0
2005107N07151 2005 27 WP MM SONCA 2005-04-24 09:00:00 TS 14.2744 130.781 main 620 620 PPPP__________ WP032005 14.2850 130.778 TY 112 930 3 110 105 105 105 50 50 50 50 20 20 20 20 14.2925 130.785 5 87 940 9 85 85 3 215 160 14.2350 130.785 4 82 955 14.2850 130.778 T 75 960 5 0
2005107N07151 2005 27 WP MM SONCA 2005-04-24 12:00:00 TS 14.5250 130.800 90 935 tokyo main 628 628 OOOO__________ jtwc_wp WP032005 14.6000 130.800 TY 115 927 4 110 100 100 100 50 50 50 50 20 20 20 20 14.5000 130.800 5 90 935 9 90 90 3 220 160 0 14.5000 130.800 5 87 950 14.5000 130.800 T 80 955 135 6 10
2005107N07151 2005 27 WP MM SONCA 2005-04-24 15:00:00 TS 14.8544 130.883 main 657 657 PPPP__________ WP032005 14.9425 130.878 TY 115 927 4 110 105 100 100 50 50 50 50 20 20 20 20 14.8200 130.885 5 90 935 9 90 90 3 220 155 14.8275 130.885 5 87 950 14.8275 130.885 T 82 952 7 15
2005107N07151 2005 27 WP MM SONCA 2005-04-24 18:00:00 TS 15.2250 131.000 90 935 tokyo main 682 682 OOOO__________ jtwc_wp WP032005 15.3000 131.000 TY 115 927 4 110 110 100 100 50 50 50 50 20 20 20 20 15.2000 131.000 5 90 935 9 90 90 3 220 150 0 15.2000 131.000 5 87 950 15.2000 131.000 ST 85 950 140 8 15
2005107N07151 2005 27 WP MM SONCA 2005-04-24 21:00:00 TS 15.6018 131.098 main 714 714 PPPP__________ WP032005 15.6500 131.135 TY 115 927 4 115 115 100 100 50 50 50 50 20 20 20 20 15.6000 131.085 5 90 935 9 90 90 3 220 150 15.6075 131.085 5 87 950 15.5500 131.085 ST 85 950 8 16
2005107N07151 2005 27 WP MM SONCA 2005-04-25 00:00:00 TS 15.9750 131.225 90 935 tokyo main 747 747 OOOO__________ jtwc_wp WP032005 16.0000 131.300 TY 115 927 4 120 120 100 100 50 50 50 50 20 20 20 20 16.0000 131.200 5 90 935 9 90 90 3 220 150 0 16.0000 131.200 5 87 950 15.9000 131.200 ST 85 950 140 8 22
2005107N07151 2005 27 WP MM SONCA 2005-04-25 03:00:00 TS 16.3050 131.395 main 784 784 PPPP__________ WP032005 16.3350 131.485 TY 115 927 4 120 120 100 100 50 50 50 50 20 20 20 20 16.3499 131.363 5 87 937 9 87 87 3 220 150 16.2925 131.370 5 87 950 16.2424 131.363 ST 85 950 8 30
2005107N07151 2005 27 WP MM SONCA 2005-04-25 06:00:00 TS 16.6500 131.625 85 940 tokyo main 827 827 OOOO__________ jtwc_wp WP032005 16.7000 131.700 TY 115 927 4 120 120 100 100 50 50 50 50 20 20 20 20 16.7000 131.600 5 85 940 9 85 85 3 220 150 0 16.6000 131.600 5 87 950 16.6000 131.600 ST 85 950 135 9 34
2005107N07151 2005 27 WP MM SONCA 2005-04-25 09:00:00 TS 17.0338 131.917 main 873 873 PPPP__________ WP032005 17.1124 131.920 TY 112 930 3 122 122 100 102 47 47 47 47 17 17 17 17 17.0626 131.935 5 85 940 9 85 85 3 220 150 17.0050 131.885 5 87 950 16.9550 131.928 ST 85 950 10 35
2005107N07151 2005 27 WP MM SONCA 2005-04-25 12:00:00 TS 17.5000 132.250 85 940 tokyo main 936 936 OOOO__________ jtwc_wp WP032005 17.6000 132.200 TY 110 933 3 125 125 100 105 45 45 45 45 15 15 15 15 17.5000 132.300 5 85 940 9 85 85 3 220 150 0 17.5000 132.200 5 87 950 17.4000 132.300 ST 85 950 135 12 30
2005107N07151 2005 27 WP MM SONCA 2005-04-25 15:00:00 TS 18.0748 132.551 main 994 994 PPPP__________ WP032005 18.1623 132.548 TY 107 935 3 127 112 100 117 50 42 42 50 15 15 15 15 18.0547 132.571 5 85 940 9 82 82 3 210 145 18.0697 132.456 5 87 952 18.0123 132.628 ST 82 952 14 28
2005107N07151 2005 27 WP MM SONCA 2005-04-25 18:00:00 TS 18.7250 132.925 85 940 tokyo main 1054 1054 OOOO__________ jtwc_wp WP032005 18.8000 133.000 TY 105 938 3 130 100 100 130 55 40 40 55 15 15 15 15 18.7000 132.900 5 85 940 9 80 80 3 200 140 0 18.7000 132.800 5 87 955 18.7000 133.000 T 80 955 130 15 32
2005107N07151 2005 27 WP MM SONCA 2005-04-25 21:00:00 TS 19.3697 133.413 main 1139 1139 PPPP__________ WP032005 19.4697 133.533 TY 102 941 3 130 97 110 112 55 35 42 42 15 15 15 15 19.3697 133.376 5 85 940 9 80 80 3 200 135 19.3123 133.318 5 87 955 19.3270 133.426 T 80 955 17 38
2005107N07151 2005 27 WP MM SONCA 2005-04-26 00:00:00 TS 20.0750 134.050 85 940 tokyo main 1242 1207 OOOO__________ jtwc_wp WP032005 20.2000 134.200 TY 100 944 3 130 95 120 95 55 30 45 30 15 15 15 15 20.1000 134.000 5 85 940 9 80 80 3 200 130 0 20.0000 134.000 5 87 955 20.0000 134.000 T 80 955 125 20 41
2005107N07151 2005 27 WP MM SONCA 2005-04-26 03:00:00 TS 20.8568 134.795 main 1199 1151 PPPP__________ WP032005 20.9920 134.976 TY 97 946 3 120 85 115 85 45 25 40 25 12 12 12 12 20.8690 134.697 5 82 945 9 75 75 3 190 130 20.8117 134.761 5 82 960 20.7544 134.746 T 77 957 23 44
2005107N07151 2005 27 WP MM SONCA 2005-04-26 06:00:00 TS 21.7000 135.725 80 950 tokyo main 1151 1119 OOOO__________ jtwc_wp WP032005 21.8000 135.900 TY 95 949 2 110 75 110 75 35 20 35 20 10 10 10 10 21.7000 135.600 5 80 950 9 70 70 3 180 130 0 21.7000 135.700 4 77 965 21.6000 135.700 T 75 960 110 26 48
2005107N07151 2005 27 WP MM SONCA 2005-04-26 09:00:00 TS 22.5981 136.878 main 1121 1102 PPPP__________ WP032005 22.5573 136.956 TY 92 951 2 115 77 100 67 35 20 30 20 10 10 10 10 22.6312 136.818 5 77 955 9 65 65 3 180 125 22.6306 136.869 4 77 965 22.5731 136.869 T 72 962 28 51
2005107N07151 2005 27 WP MM SONCA 2005-04-26 12:00:00 TS 23.4500 138.100 75 960 tokyo main 1101 1083 OOOO__________ jtwc_wp WP032005 23.3000 138.100 TY 90 954 2 120 80 90 60 35 20 25 20 10 10 10 10 23.5000 138.100 5 75 960 9 60 60 3 180 120 0 23.5000 138.100 4 77 965 23.5000 138.100 T 70 965 90 26 53
2005107N07151 2005 27 WP MM SONCA 2005-04-26 15:00:00 TS 24.1747 139.144 main 1075 1052 PPPP__________ WP032005 24.0711 139.214 TY 72 969 1 120 75 87 57 25 17 20 17 5 5 5 5 24.1592 139.075 5 70 965 9 52 52 3 175 120 24.2306 139.144 4 70 970 24.2381 139.144 T 67 967 23 56
2005107N07151 2005 27 WP MM SONCA 2005-04-26 18:00:00 TS 24.7733 140.213 65 970 tokyo main 1050 1048 OOOO__________ jtwc_wp WP032005 24.8000 140.400 TS 55 984 0 120 70 85 55 15 15 15 15 24.7000 140.100 5 65 970 9 45 45 3 170 120 0 24.8000 140.200 4 64 975 24.8000 140.200 T 65 970 70 23 64
2005107N07151 2005 27 WP MM SONCA 2005-04-26 21:00:00 TS 25.2084 141.440 60 975 tokyo main 1063 1063 POPP__________ WP032005 25.4330 141.710 TS 55 984 0 120 70 85 55 15 15 15 15 25.2000 141.400 4 60 975 9 40 40 3 160 110 0 25.1564 141.393 4 59 977 25.1564 141.393 T 60 975 24 71
2005107N07151 2005 27 WP MM SONCA 2005-04-27 00:00:00 TS 25.5417 142.733 55 980 tokyo main 1082 1057 OOOO__________ jtwc_wp WP032005 26.0000 143.100 TS 55 984 0 120 70 85 55 15 15 15 15 25.5000 142.700 4 55 980 9 35 35 3 140 110 0 25.5000 142.700 3 54 980 25.5000 142.700 STS 55 980 25 69
2005107N07151 2005 27 WP MM SONCA 2005-04-27 03:00:00 TS 26.1182 144.065 50 985 tokyo main 1060 1050 _OPP__________ WP032005 TS -1 26.2000 144.000 4 50 985 0 3 130 100 0 26.0765 144.105 3 49 985 26.0382 144.115 STS 50 982 28 66
2005107N07151 2005 27 WP MM SONCA 2005-04-27 06:00:00 TS 26.7000 145.600 45 990 tokyo main 1063 1063 _OOO__________ 26.7000 145.600 3 45 990 0 3 110 90 0 26.7000 145.600 2 44 990 26.7000 145.600 TS 45 984 30 68
2005107N07151 2005 27 WP MM SONCA 2005-04-27 09:00:00 TS 27.2209 147.163 main 1100 1097 _PP___________ 27.2125 147.174 3 993 0 3 27.2292 147.151 2 36 993 TS 29 70
2005107N07151 2005 27 WP MM SONCA 2005-04-27 12:00:00 ET 27.7000 148.700 996 tokyo main 1147 1147 _OO___________ 27.7000 148.700 6 996 0 0 0 27.7000 148.700 9 29 996 28 70
2005107N07151 2005 27 WP MM SONCA 2005-04-27 15:00:00 ET 28.1634 150.105 main 1202 1202 _PP___________ 28.1634 150.105 6 998 0 0 28.1634 150.105 9 29 998 27 73
2005107N07151 2005 27 WP MM SONCA 2005-04-27 18:00:00 ET 28.5000 151.600 1000 tokyo main 1285 1285 _OO___________ 28.5000 151.600 6 1000 0 0 0 28.5000 151.600 9 29 1000 30 81
2005107N07151 2005 27 WP MM SONCA 2005-04-27 21:00:00 ET 28.6267 153.444 main 1414 1414 _PP___________ 28.6267 153.444 6 1002 0 0 28.6267 153.444 9 29 1002 32 88
2005107N07151 2005 27 WP MM SONCA 2005-04-28 00:00:00 ET 28.6000 155.300 1004 tokyo main 1565 1565 _OO___________ 28.6000 155.300 6 1004 0 0 0 28.6000 155.300 9 29 1004 30 92
2005107N07151 2005 27 WP MM SONCA 2005-04-28 03:00:00 ET 28.5042 156.861 main 1702 1702 _PP___________ 28.5042 156.861 6 1005 0 0 28.5042 156.861 9 26 1005 26 94
2005107N07151 2005 27 WP MM SONCA 2005-04-28 06:00:00 ET 28.4000 158.300 1006 tokyo main 1824 1824 _OO___________ 28.4000 158.300 6 1006 0 0 0 28.4000 158.300 9 23 1006 26 92
2005107N07151 2005 27 WP MM SONCA 2005-04-28 09:00:00 ET 28.3993 159.794 main 1951 1951 _PP___________ 28.3993 159.794 6 1006 0 0 28.3993 159.794 9 23 1006 25 90
2005107N07151 2005 27 WP MM SONCA 2005-04-28 12:00:00 ET 28.4000 161.200 1006 tokyo main 2070 2070 _OO___________ 28.4000 161.200 6 1006 0 0 0 28.4000 161.200 9 23 1006 23 91
2005107N07151 2005 27 WP MM SONCA 2005-04-28 15:00:00 ET 28.3433 162.452 main 2188 2188 _PP___________ 28.3433 162.452 6 1006 0 0 28.3433 162.452 9 23 1006 21 95
2005107N07151 2005 27 WP MM SONCA 2005-04-28 18:00:00 ET 28.2000 163.600 1006 tokyo main 2289 2289 _OO___________ 28.2000 163.600 6 1006 0 0 0 28.2000 163.600 9 23 1006 21 102
2005107N07151 2005 27 WP MM SONCA 2005-04-28 21:00:00 ET 27.9293 164.738 main 2371 2371 _PP___________ 27.9293 164.738 6 1007 0 0 27.9293 164.738 9 21 1007 20 107
2005107N07151 2005 27 WP MM SONCA 2005-04-29 00:00:00 ET 27.6000 165.800 1008 tokyo main 2454 2454 _OO___________ 27.6000 165.800 6 1008 0 0 0 27.6000 165.800 9 19 1008 19 109
2005107N07151 2005 27 WP MM SONCA 2005-04-29 03:00:00 ET 27.2911 166.775 main 2534 2534 _PP___________ 27.2911 166.775 6 1008 0 0 27.2911 166.775 9 19 1008 18 110
2005107N07151 2005 27 WP MM SONCA 2005-04-29 06:00:00 ET 27.0000 167.700 1008 tokyo main 2610 _OO___________ 27.0000 167.700 6 1008 0 0 0 27.0000 167.700 9 19 1008 17 109

デジタル台風データ・検索

IBTrACS Databaseについて

本データベースは、米国NOAAが公開する1842年以降の世界の熱帯低気圧のベストトラックデータアーカイブInternational Best Track Archive for Climate Stewardship (IBTrACS)を、ウェブで閲覧しやすい形式に変換したものです。

最終更新日:2021-10-19